Time;durP1;ratioP1;P1;durP2;ratioP2;P2;SDS_P1;SDS_P2;PMS_P1;PMS_P2;Temp;Humidity;BMP_temperature;BMP_pressure;BME280_temperature;BME280_humidity;BME280_pressure;Samples;Min_cycle;Max_cycle;Signal;HPM_P1;HPM_P2
2022/01/12 00:01:40;;;;;;;77.38;30.27;;;;;;;-2.33;95.16;103087.38;7397164;19;20022;-68
2022/01/12 00:04:08;;;;;;;81.72;29.77;;;;;;;-2.31;95.27;103080.66;7396969;19;20036;-67
2022/01/12 00:06:39;;;;;;;74.85;26.58;;;;;;;-2.29;95.05;103078.19;7394899;19;20039;-67
2022/01/12 00:09:08;;;;;;;84.50;27.27;;;;;;;-2.27;95.17;103081.78;7397320;19;20014;-68
2022/01/12 00:11:36;;;;;;;79.10;28.83;;;;;;;-2.26;95.05;103082.66;7394733;19;20014;-67
2022/01/12 00:14:05;;;;;;;70.90;26.00;;;;;;;-2.24;95.19;103089.69;7396726;19;20015;-68
2022/01/12 00:16:34;;;;;;;66.07;24.73;;;;;;;-2.23;94.75;103086.34;7395728;19;20015;-68
2022/01/12 00:19:02;;;;;;;76.10;27.17;;;;;;;-2.25;94.52;103097.31;7396652;19;20030;-69
2022/01/12 00:21:30;;;;;;;66.25;25.85;;;;;;;-2.28;94.53;103097.13;7396512;19;20014;-68
2022/01/12 00:24:01;;;;;;;69.22;25.83;;;;;;;-2.29;95.00;103096.19;7396418;19;20037;-68
2022/01/12 00:33:06;;;;;;;77.38;27.65;;;;;;;-2.29;95.32;103088.47;7395718;19;20031;-68
2022/01/12 00:34:50;;;;;;;68.95;27.77;;;;;;;-2.28;95.22;103090.28;7396295;19;20022;-68
2022/01/12 00:37:25;;;;;;;66.18;25.05;;;;;;;-2.28;95.28;103084.25;7394643;19;20014;-69
2022/01/12 00:39:58;;;;;;;75.05;26.88;;;;;;;-2.28;95.52;103086.81;7395939;19;20023;-69
2022/01/12 00:42:28;;;;;;;74.53;27.92;;;;;;;-2.27;95.42;103089.50;7396306;19;20014;-67
2022/01/12 00:45:00;;;;;;;74.50;27.70;;;;;;;-2.25;95.32;103090.50;7395807;19;20018;-67
2022/01/12 00:47:28;;;;;;;70.68;26.50;;;;;;;-2.25;95.19;103080.22;7394127;19;20025;-67
2022/01/12 00:50:03;;;;;;;79.40;26.38;;;;;;;-2.25;95.29;103079.31;7395342;19;20031;-67
2022/01/12 00:52:31;;;;;;;66.90;25.00;;;;;;;-2.26;95.51;103073.28;7396166;19;20031;-67
2022/01/12 00:55:01;;;;;;;71.72;26.58;;;;;;;-2.25;95.39;103075.06;7395558;19;20054;-67
2022/01/12 00:57:30;;;;;;;73.15;26.55;;;;;;;-2.24;95.68;103076.84;7394294;19;20018;-67
2022/01/12 00:59:58;;;;;;;79.43;27.08;;;;;;;-2.22;95.66;103079.53;7395456;19;20037;-68
2022/01/12 01:02:26;;;;;;;75.82;26.35;;;;;;;-2.23;95.47;103065.75;7395391;19;20570;-67
2022/01/12 01:04:55;;;;;;;70.07;24.00;;;;;;;-2.23;95.29;103063.19;7395307;19;20018;-67
2022/01/12 01:07:23;;;;;;;66.40;23.15;;;;;;;-2.26;95.50;103063.00;7393920;19;20378;-68
2022/01/12 01:10:00;;;;;;;69.55;25.10;;;;;;;-2.28;95.28;103059.41;7395231;19;20031;-68
2022/01/12 01:12:32;;;;;;;65.97;25.23;;;;;;;-2.29;95.50;103065.34;7393942;19;20011;-68
2022/01/12 01:15:06;;;;;;;68.47;23.02;;;;;;;-2.28;95.91;103061.13;7395430;19;20018;-67
2022/01/12 01:25:40;;;;;;;80.65;27.02;;;;;;;-2.26;95.93;103078.44;7402049;19;20014;-67
2022/01/12 01:28:11;;;;;;;85.22;26.83;;;;;;;-2.25;95.95;103085.38;7402283;19;20015;-67
2022/01/12 01:30:41;;;;;;;78.60;27.20;;;;;;;-2.24;95.95;103081.09;7401446;19;20027;-68
2022/01/12 01:33:11;;;;;;;55.70;21.50;;;;;;;-2.24;96.06;103087.13;7401723;19;20546;-67
2022/01/12 01:35:42;;;;;;;57.60;21.52;;;;;;;-2.25;96.01;103080.22;7401568;19;20019;-68
2022/01/12 01:38:10;;;;;;;63.88;21.45;;;;;;;-2.27;95.96;103076.63;7402465;19;20015;-68
2022/01/12 01:40:42;;;;;;;67.85;20.85;;;;;;;-2.28;96.13;103068.81;7401906;19;20031;-68
2022/01/12 01:43:18;;;;;;;75.45;22.83;;;;;;;-2.30;96.04;103067.03;7402303;19;20025;-67
2022/01/12 01:53:50;;;;;;;71.95;23.55;;;;;;;-2.27;96.04;103075.72;7401705;19;20379;-68
2022/01/12 01:56:19;;;;;;;68.50;23.30;;;;;;;-2.25;96.33;103076.72;7400081;19;20031;-67
2022/01/12 01:58:50;;;;;;;76.20;22.65;;;;;;;-2.26;96.26;103072.38;7401344;19;20014;-68
2022/01/12 02:01:19;;;;;;;86.28;23.73;;;;;;;-2.27;96.42;103070.59;7401683;19;20011;-67
2022/01/12 02:03:47;;;;;;;74.72;22.17;;;;;;;-2.28;96.46;103074.84;7402088;19;20031;-66
2022/01/12 02:06:16;;;;;;;80.25;26.48;;;;;;;-2.28;96.47;103072.28;7400826;19;20019;-67
2022/01/12 02:08:45;;;;;;;79.53;24.80;;;;;;;-2.29;96.44;103067.91;7401818;19;20018;-66
2022/01/12 02:11:13;;;;;;;84.47;24.10;;;;;;;-2.30;96.54;103069.59;7399070;19;20037;-66
2022/01/12 02:13:41;;;;;;;73.10;24.83;;;;;;;-2.28;96.79;103068.81;7402929;19;20022;-66
2022/01/12 02:16:15;;;;;;;81.82;26.42;;;;;;;-2.29;96.85;103075.63;7399645;19;20026;-66
2022/01/12 02:19:07;;;;;;;79.55;24.65;;;;;;;-2.28;96.75;103074.84;7401123;19;20014;-66
2022/01/12 02:35:32;;;;;;;71.22;22.50;;;;;;;-2.28;97.01;103054.28;7399843;19;20505;-68
2022/01/12 02:40:49;;;;;;;78.05;24.33;;;;;;;-2.28;97.00;103064.56;7400099;19;20022;-68
2022/01/12 02:43:28;;;;;;;;;;;;;;;-2.28;97.10;103069.69;7401006;19;20019;-68
2022/01/12 02:51:29;;;;;;;83.57;24.35;;;;;;;-2.26;97.38;103078.44;7398083;19;20017;-68
2022/01/12 02:53:59;;;;;;;85.60;26.60;;;;;;;-2.23;97.35;103086.34;7400008;19;20046;-68
2022/01/12 02:56:29;;;;;;;80.70;25.48;;;;;;;-2.22;97.50;103080.41;7398342;19;20050;-68
2022/01/12 02:58:59;;;;;;;73.35;23.33;;;;;;;-2.20;97.25;103078.84;7399784;19;20018;-68
2022/01/12 03:01:55;;;;;;;85.68;24.85;;;;;;;-2.18;97.45;103079.81;7398833;19;20492;-68
2022/01/12 03:04:23;;;;;;;77.95;22.88;;;;;;;-2.19;97.43;103070.31;7399641;19;20038;-68
2022/01/12 03:06:52;;;;;;;83.03;25.20;;;;;;;-2.13;97.46;103080.16;7397555;19;20031;-68
2022/01/12 03:09:23;;;;;;;83.93;24.58;;;;;;;-2.13;97.62;103075.88;7399034;19;20375;-68
2022/01/12 03:11:51;;;;;;;89.35;24.63;;;;;;;-2.11;97.35;103069.97;7397166;19;20027;-68
2022/01/12 03:14:19;;;;;;;82.53;23.75;;;;;;;-2.10;97.33;103071.75;7400320;19;20018;-69
2022/01/12 03:16:47;;;;;;;84.35;24.88;;;;;;;-2.09;97.42;103078.69;7398844;19;20025;-69
2022/01/12 03:19:15;;;;;;;79.82;24.35;;;;;;;-2.10;97.40;103074.31;7400327;19;20036;-68
2022/01/12 03:21:43;;;;;;;79.57;23.38;;;;;;;-2.09;97.46;103070.97;7400648;19;20031;-68
2022/01/12 03:24:12;;;;;;;82.40;25.98;;;;;;;-2.08;97.44;103072.75;7398489;19;20031;-68
2022/01/12 03:26:42;;;;;;;82.43;24.33;;;;;;;-2.08;97.42;103078.78;7397206;19;20018;-69
2022/01/12 03:29:11;;;;;;;82.10;26.25;;;;;;;-2.06;97.29;103072.06;7398754;19;20022;-68
2022/01/12 03:31:39;;;;;;;85.75;26.58;;;;;;;-2.05;97.57;103065.22;7396829;19;20014;-69
2022/01/12 03:34:11;;;;;;;91.32;26.85;;;;;;;-2.05;97.67;103063.53;7397969;19;20019;-68
2022/01/12 03:37:04;;;;;;;92.55;26.77;;;;;;;-2.03;97.63;103058.53;7396732;19;20066;-68
2022/01/12 03:39:33;;;;;;;93.72;26.67;;;;;;;-2.07;97.66;103049.69;7397840;19;20018;-68
2022/01/12 03:42:04;;;;;;;94.97;28.13;;;;;;;-2.04;97.42;103055.03;7396321;19;20032;-68
2022/01/12 03:44:32;;;;;;;92.90;28.25;;;;;;;-2.02;97.64;103057.69;7398227;19;20513;-68
2022/01/12 03:47:00;;;;;;;94.80;27.85;;;;;;;-2.03;97.43;103064.53;7396226;19;20019;-68
2022/01/12 03:49:29;;;;;;;95.20;27.67;;;;;;;-2.03;97.66;103064.53;7395768;19;20019;-68
2022/01/12 03:51:57;;;;;;;98.55;28.60;;;;;;;-2.03;97.76;103064.53;7396154;19;20029;-68
2022/01/12 03:54:25;;;;;;;91.88;27.75;;;;;;;-2.03;97.75;103064.53;7397299;19;20018;-68
2022/01/12 03:56:53;;;;;;;101.63;28.42;;;;;;;-2.03;97.71;103071.38;7396078;19;20035;-69
2022/01/12 03:59:24;;;;;;;93.35;26.70;;;;;;;-2.03;97.50;103071.38;7397202;19;20018;-68
2022/01/12 04:01:52;;;;;;;85.57;26.13;;;;;;;-2.04;97.74;103067.91;7397590;19;20014;-68
2022/01/12 04:04:28;;;;;;;90.72;25.30;;;;;;;-2.04;97.56;103062.75;7396937;19;20015;-68
2022/01/12 04:09:52;;;;;;;92.47;28.13;;;;;;;-2.00;97.77;103058.72;7391710;19;20528;-68
2022/01/12 04:12:33;;;;;;;96.63;29.80;;;;;;;-1.99;97.60;103057.94;7393773;19;20014;-68
2022/01/12 04:15:05;;;;;;;87.50;26.52;;;;;;;-1.98;97.67;103052.88;7397954;19;20032;-68
2022/01/12 04:17:33;;;;;;;86.30;25.92;;;;;;;-1.99;97.83;103047.63;7396058;19;20018;-68
2022/01/12 04:20:02;;;;;;;85.57;27.20;;;;;;;-1.99;97.55;103045.94;7397224;19;20014;-68
2022/01/12 04:25:12;;;;;;;82.10;24.52;;;;;;;-1.96;97.84;103047.81;7396220;19;20021;-68
2022/01/12 04:27:40;;;;;;;92.25;31.20;;;;;;;-1.97;97.68;103052.09;7394252;19;20022;-68
2022/01/12 04:30:12;;;;;;;80.45;25.40;;;;;;;-1.94;97.94;103051.41;7396289;19;20021;-67
2022/01/12 04:32:42;;;;;;;77.07;26.80;;;;;;;-1.93;97.72;103048.06;7394681;19;20019;-67
2022/01/12 04:35:13;;;;;;;83.97;26.52;;;;;;;-1.91;97.79;103058.44;7395849;19;20048;-67
2022/01/12 04:37:42;;;;;;;75.32;26.27;;;;;;;-1.90;97.79;103050.81;7394080;19;20040;-68
2022/01/12 04:40:12;;;;;;;81.18;26.27;;;;;;;-1.89;97.80;103047.44;7395778;19;20015;-67
2022/01/12 04:42:40;;;;;;;85.03;28.17;;;;;;;-1.89;97.41;103050.03;7395402;19;20030;-68
2022/01/12 04:45:32;;;;;;;82.25;28.33;;;;;;;-1.89;97.51;103050.03;7395430;19;20018;-68
2022/01/12 04:48:08;;;;;;;81.78;27.42;;;;;;;-1.90;97.81;103053.38;7396521;19;20037;-68
2022/01/12 04:50:37;;;;;;;86.10;26.38;;;;;;;-1.89;97.67;103051.72;7396145;19;20390;-68
2022/01/12 04:53:06;;;;;;;91.47;26.65;;;;;;;-1.88;97.74;103050.94;7394013;19;20198;-68
2022/01/12 04:55:34;;;;;;;87.50;25.50;;;;;;;-1.88;97.95;103053.50;7395191;19;20377;-68
2022/01/12 04:58:02;;;;;;;85.80;26.05;;;;;;;-1.87;97.88;103053.59;7395247;19;20011;-68
2022/01/12 05:00:33;;;;;;;92.05;28.02;;;;;;;-1.87;97.87;103043.31;7395050;19;20011;-68
2022/01/12 05:08:37;;;;;;;88.00;27.42;;;;;;;-1.90;97.78;103042.22;7395061;19;20006;-68
2022/01/12 05:13:49;;;;;;;96.88;29.52;;;;;;;-1.80;98.12;103071.22;7393087;19;20023;-67
2022/01/12 05:16:21;;;;;;;92.43;27.65;;;;;;;-1.84;97.72;103064.09;7393818;19;20033;-67
2022/01/12 05:18:51;;;;;;;87.25;27.23;;;;;;;-1.78;98.13;103070.44;7396209;19;20018;-69
2022/01/12 05:21:21;;;;;;;94.07;26.92;;;;;;;-1.77;98.11;103075.69;7394469;19;20015;-68
2022/01/12 05:23:50;;;;;;;94.20;29.63;;;;;;;-1.82;98.00;103062.53;7394540;19;20026;-68
2022/01/12 05:26:18;;;;;;;93.78;28.13;;;;;;;-1.76;97.82;103068.88;7393677;19;20053;-68
2022/01/12 05:28:46;;;;;;;96.85;27.45;;;;;;;-1.77;97.83;103062.81;7393919;19;20502;-68
2022/01/12 05:31:15;;;;;;;90.97;28.73;;;;;;;-1.76;97.96;103056.88;7393208;19;20491;-68
2022/01/12 05:33:48;;;;;;;101.00;29.60;;;;;;;-1.74;98.00;103065.59;7393670;19;20011;-68
2022/01/12 05:36:18;;;;;;;96.72;29.80;;;;;;;-1.73;97.98;103069.97;7393496;19;20030;-69
2022/01/12 05:38:48;;;;;;;105.60;30.25;;;;;;;-1.72;97.93;103069.19;7394311;19;20063;-68
2022/01/12 05:41:16;;;;;;;97.00;28.20;;;;;;;-1.70;98.13;103056.41;7393516;19;20026;-68
2022/01/12 05:43:46;;;;;;;93.68;29.88;;;;;;;-1.69;98.19;103058.19;7394972;19;20021;-67
2022/01/12 05:46:15;;;;;;;102.47;29.67;;;;;;;-1.68;98.00;103063.44;7392283;19;20393;-68
2022/01/12 05:51:28;;;;;;;93.03;29.05;;;;;;;-1.70;97.84;103061.56;7393020;19;20013;-67
2022/01/12 05:53:56;;;;;;;96.75;29.58;;;;;;;-1.66;97.97;103069.56;7393551;19;20010;-67
2022/01/12 05:56:25;;;;;;;100.75;28.65;;;;;;;-1.63;98.12;103074.03;7391894;19;20044;-67
2022/01/12 05:58:54;;;;;;;98.63;29.58;;;;;;;-1.62;97.84;103074.94;7392920;19;20488;-67
2022/01/12 06:01:22;;;;;;;100.45;30.60;;;;;;;-1.62;98.02;103075.81;7392555;19;20015;-67
2022/01/12 06:03:53;;;;;;;99.25;28.55;;;;;;;-1.61;97.99;103072.44;7392944;19;20102;-67
2022/01/12 06:06:21;;;;;;;107.00;29.65;;;;;;;-1.59;98.16;103073.44;7397995;19;20498;-67
2022/01/12 06:08:50;;;;;;;106.13;31.45;;;;;;;-1.59;97.84;103060.56;7398878;19;20034;-67
2022/01/12 06:11:18;;;;;;;107.00;31.13;;;;;;;-1.58;98.02;103057.22;7399823;19;20088;-67
2022/01/12 06:13:46;;;;;;;113.20;31.45;;;;;;;-1.57;97.92;103055.50;7397187;19;20346;-67
2022/01/12 06:16:14;;;;;;;102.40;30.40;;;;;;;-1.58;97.89;103031.47;7397826;19;20022;-67
2022/01/12 06:18:42;;;;;;;110.72;31.45;;;;;;;-1.56;98.10;103035.00;7399280;19;20019;-68
2022/01/12 06:21:13;;;;;;;103.75;29.80;;;;;;;-1.56;97.70;103035.00;7399104;19;20353;-71
2022/01/12 06:23:41;;;;;;;105.55;30.38;;;;;;;-1.56;97.80;103035.00;7399119;19;20036;-65
2022/01/12 06:26:10;;;;;;;103.95;29.58;;;;;;;-1.56;97.97;103027.28;7397786;19;20386;-66
2022/01/12 06:28:42;;;;;;;107.15;28.98;;;;;;;-1.54;97.71;103027.38;7400196;19;20018;-66
2022/01/12 06:31:13;;;;;;;109.43;30.45;;;;;;;-1.63;97.91;103012.25;7400331;19;20014;-67
2022/01/12 06:33:43;;;;;;;114.25;31.33;;;;;;;-1.52;97.70;103037.00;7399228;19;20022;-67
2022/01/12 06:36:17;;;;;;;104.43;29.52;;;;;;;-1.52;97.70;103036.09;7396513;19;20018;-68
2022/01/12 06:38:46;;;;;;;118.40;30.92;;;;;;;-1.51;97.84;103038.78;7400794;19;20014;-71
2022/01/12 06:41:16;;;;;;;119.95;31.98;;;;;;;-1.51;97.74;103032.75;7399209;19;20405;-68
2022/01/12 06:43:44;;;;;;;114.88;31.92;;;;;;;-1.52;98.04;103034.41;7399947;19;20014;-68
2022/01/12 06:46:14;;;;;;;111.40;33.70;;;;;;;-1.49;97.80;103044.94;7397890;19;20015;-68
2022/01/12 06:48:42;;;;;;;111.90;32.17;;;;;;;-1.48;97.84;103040.66;7400272;19;20082;-68
2022/01/12 06:51:13;;;;;;;109.28;29.75;;;;;;;-1.48;98.25;103046.72;7397169;19;20018;-67
2022/01/12 06:53:42;;;;;;;107.00;30.58;;;;;;;-1.50;98.22;103034.53;7397131;19;20035;-68
2022/01/12 06:56:10;;;;;;;107.72;31.02;;;;;;;-1.45;98.17;103034.81;7398139;19;20035;-67
2022/01/12 06:58:38;;;;;;;107.97;29.45;;;;;;;-1.44;98.09;103054.63;7398992;19;20386;-69
2022/01/12 07:01:28;;;;;;;110.50;30.00;;;;;;;-1.48;98.01;103054.44;7399447;19;20006;-68
2022/01/12 07:03:57;;;;;;;102.40;32.53;;;;;;;-1.43;98.01;103053.84;7397977;19;20483;-68
2022/01/12 07:06:27;;;;;;;107.10;31.25;;;;;;;-1.43;98.01;103059.00;7397762;19;20479;-69
2022/01/12 07:08:56;;;;;;;111.63;31.95;;;;;;;-1.43;97.87;103052.13;7396955;19;20031;-68
2022/01/12 07:11:24;;;;;;;105.10;30.80;;;;;;;-1.42;98.05;103058.19;7398963;19;20022;-69
2022/01/12 07:14:05;;;;;;;103.50;30.13;;;;;;;-1.40;98.22;103069.47;7395483;19;20507;-69
2022/01/12 07:16:34;;;;;;;106.97;31.08;;;;;;;-1.39;98.03;103061.88;7394994;19;20040;-70
2022/01/12 07:19:02;;;;;;;101.07;30.95;;;;;;;-1.38;98.04;103065.31;7398679;19;20018;-67
2022/01/12 07:21:33;;;;;;;104.80;31.35;;;;;;;-1.39;98.03;103071.25;7399481;19;20014;-68
2022/01/12 07:24:02;;;;;;;99.97;30.40;;;;;;;-1.38;97.93;103075.63;7397813;19;20015;-69
2022/01/12 07:26:30;;;;;;;110.30;30.75;;;;;;;-1.37;97.97;103077.41;7396373;19;20048;-68
2022/01/12 07:28:58;;;;;;;110.38;34.35;;;;;;;-1.37;97.92;103085.16;7397568;19;20019;-68
2022/01/12 07:31:26;;;;;;;116.43;33.85;;;;;;;-1.36;98.05;103086.94;7397537;19;20036;-68
2022/01/12 07:33:55;;;;;;;106.65;32.10;;;;;;;-1.34;98.09;103082.75;7395792;19;20036;-68
2022/01/12 07:36:24;;;;;;;113.45;31.70;;;;;;;-1.35;98.29;103084.44;7397056;19;20056;-68
2022/01/12 07:38:59;;;;;;;111.75;32.50;;;;;;;-1.32;98.00;103088.91;7398217;19;20022;-69
2022/01/12 07:41:27;;;;;;;105.60;31.95;;;;;;;-1.33;97.91;103085.44;7398893;19;20014;-69
2022/01/12 07:43:55;;;;;;;115.25;32.85;;;;;;;-1.31;97.83;103091.56;7397803;19;20487;-68
2022/01/12 07:46:23;;;;;;;115.22;33.17;;;;;;;-1.30;98.18;103087.34;7397061;19;20018;-67
2022/01/12 07:48:51;;;;;;;108.55;32.22;;;;;;;-1.29;98.29;103091.66;7397386;19;20495;-68
2022/01/12 07:51:20;;;;;;;115.18;32.20;;;;;;;-1.27;98.18;103084.06;7396932;19;20479;-68
2022/01/12 07:53:48;;;;;;;110.43;33.88;;;;;;;-1.27;97.91;103097.81;7395742;19;20011;-67
2022/01/12 07:56:19;;;;;;;108.85;32.25;;;;;;;-1.26;98.07;103090.97;7396553;19;20031;-68
2022/01/12 07:58:47;;;;;;;103.40;33.35;;;;;;;-1.26;97.75;103081.56;7397118;19;20010;-68
2022/01/12 08:01:15;;;;;;;108.10;33.97;;;;;;;-1.29;98.14;103085.63;7397285;19;20017;-69
2022/01/12 08:03:43;;;;;;;111.53;35.10;;;;;;;-1.24;98.15;103090.31;7397431;19;20014;-68
2022/01/12 08:06:11;;;;;;;111.70;34.45;;;;;;;-1.24;98.18;103087.72;7396163;19;20014;-68
2022/01/12 08:08:40;;;;;;;108.70;33.92;;;;;;;-1.23;98.14;103092.06;7396898;19;20483;-67
2022/01/12 08:11:08;;;;;;;114.32;35.78;;;;;;;-1.24;98.20;103092.88;7397137;19;20052;-68
2022/01/12 08:13:39;;;;;;;104.85;32.42;;;;;;;-1.26;97.87;103097.03;7394589;19;20022;-68
2022/01/12 08:16:07;;;;;;;106.30;31.10;;;;;;;-1.23;98.07;103098.91;7397604;19;20019;-67
2022/01/12 08:18:35;;;;;;;111.22;32.35;;;;;;;-1.24;97.72;103094.56;7396315;19;20023;-67
2022/01/12 08:21:06;;;;;;;112.45;32.60;;;;;;;-1.24;97.94;103091.97;7396814;19;20474;-66
2022/01/12 08:23:34;;;;;;;114.88;34.88;;;;;;;-1.23;98.39;103080.88;7397416;19;20031;-67
2022/01/12 08:26:02;;;;;;;109.13;32.70;;;;;;;-1.23;98.38;103084.34;7394646;19;20011;-69
2022/01/12 08:28:30;;;;;;;111.97;34.70;;;;;;;-1.21;98.34;103098.22;7395279;19;20044;-69
2022/01/12 08:31:01;;;;;;;111.82;32.85;;;;;;;-1.19;98.68;103114.69;7396334;19;20060;-67
2022/01/12 08:33:29;;;;;;;107.55;31.63;;;;;;;-1.18;98.24;103119.00;7394354;19;20014;-68
2022/01/12 08:35:57;;;;;;;116.05;34.80;;;;;;;-1.13;98.35;103127.03;7395201;19;20095;-69
2022/01/12 08:38:26;;;;;;;107.68;31.33;;;;;;;-1.09;98.50;103121.28;7396323;19;20011;-70
2022/01/12 08:40:54;;;;;;;109.35;31.90;;;;;;;-1.11;98.59;103097.13;7395830;19;20032;-68
2022/01/12 08:43:23;;;;;;;107.47;30.73;;;;;;;-1.02;98.66;103096.84;7395599;19;20033;-68
2022/01/12 08:45:53;;;;;;;109.35;31.95;;;;;;;-0.95;98.78;103104.13;7395253;19;20014;-68
2022/01/12 08:48:24;;;;;;;112.20;31.02;;;;;;;-0.91;98.49;103103.56;7396045;19;20022;-69
2022/01/12 08:50:53;;;;;;;106.18;33.83;;;;;;;-0.86;98.49;103116.72;7395994;19;20014;-69
2022/01/12 08:53:21;;;;;;;108.03;33.83;;;;;;;-0.78;98.81;103128.41;7394467;19;20037;-68
2022/01/12 08:55:50;;;;;;;102.55;32.83;;;;;;;-0.71;98.51;103129.69;7394743;19;20033;-67
2022/01/12 08:58:18;;;;;;;106.18;31.80;;;;;;;-0.65;98.53;103124.91;7394787;19;20378;-69
2022/01/12 09:00:46;;;;;;;95.80;29.65;;;;;;;-0.58;98.33;103124.53;7394770;19;20010;-67
2022/01/12 09:03:15;;;;;;;97.18;32.78;;;;;;;-0.52;98.33;103127.47;7394937;19;20015;-67
2022/01/12 09:05:46;;;;;;;103.88;34.85;;;;;;;-0.47;98.14;103125.16;7394449;19;20036;-67
2022/01/12 09:08:14;;;;;;;98.15;30.77;;;;;;;-0.39;98.49;103128.22;7395227;19;20011;-67
2022/01/12 09:10:42;;;;;;;89.30;31.70;;;;;;;-0.33;97.69;103136.34;7394850;19;20044;-69
2022/01/12 09:13:10;;;;;;;94.53;30.95;;;;;;;-0.27;97.74;103128.09;7392778;19;20462;-68
2022/01/12 09:15:38;;;;;;;87.85;31.17;;;;;;;-0.23;97.78;103124.91;7394753;19;20038;-67
2022/01/12 09:18:07;;;;;;;88.95;30.73;;;;;;;-0.20;97.73;103120.81;7395311;19;20037;-69
2022/01/12 09:20:35;;;;;;;87.57;29.55;;;;;;;-0.14;97.75;103130.59;7395115;19;20022;-68
2022/01/12 09:23:07;;;;;;;90.07;30.85;;;;;;;-0.08;97.74;103145.59;7394686;19;20363;-67
2022/01/12 09:25:39;;;;;;;95.30;31.45;;;;;;;-0.05;97.55;103140.59;7395128;19;20040;-69
2022/01/12 09:28:07;;;;;;;86.53;31.88;;;;;;;-0.03;97.25;103139.91;7395431;19;20375;-67
2022/01/12 09:30:36;;;;;;;87.57;29.95;;;;;;;0.02;97.20;103134.13;7395125;19;20036;-69
2022/01/12 09:33:04;;;;;;;91.30;31.92;;;;;;;0.06;97.06;103136.09;7393726;19;20033;-69
2022/01/12 09:35:33;;;;;;;89.20;33.75;;;;;;;0.09;96.82;103129.44;7394250;19;20100;-67
2022/01/12 09:38:01;;;;;;;70.68;29.13;;;;;;;0.14;96.65;103138.34;7394717;19;20015;-69
2022/01/12 09:40:32;;;;;;;86.82;30.35;;;;;;;0.18;96.54;103129.09;7400632;19;20014;-67
2022/01/12 09:43:05;;;;;;;74.40;28.30;;;;;;;0.22;96.57;103120.72;7402376;19;20483;-67
2022/01/12 09:45:34;;;;;;;81.47;30.15;;;;;;;0.27;96.45;103118.41;7402729;19;20040;-68
2022/01/12 09:48:02;;;;;;;74.65;27.35;;;;;;;0.31;96.73;103108.34;7401640;19;20010;-67
2022/01/12 09:50:30;;;;;;;76.30;28.92;;;;;;;0.37;96.57;103114.66;7401930;19;20017;-68
2022/01/12 09:52:59;;;;;;;80.43;30.10;;;;;;;0.39;95.42;103119.16;7400732;19;20014;-72
2022/01/12 09:55:29;;;;;;;75.72;29.15;;;;;;;0.41;95.59;103111.47;7401049;19;20050;-68
2022/01/12 09:57:59;;;;;;;73.43;28.70;;;;;;;0.44;95.88;103114.22;7401354;19;20014;-68
2022/01/12 10:00:30;;;;;;;85.65;30.17;;;;;;;0.46;96.05;103110.94;7401815;19;20103;-68
2022/01/12 10:02:59;;;;;;;78.15;28.73;;;;;;;0.51;96.35;103115.50;7401265;19;20032;-68
2022/01/12 10:05:33;;;;;;;77.15;28.23;;;;;;;0.54;96.26;103105.31;7400960;19;20021;-68
2022/01/12 10:08:12;;;;;;;75.45;28.33;;;;;;;0.57;95.63;103108.06;7400933;19;20375;-68
2022/01/12 10:10:40;;;;;;;73.28;27.58;;;;;;;0.60;95.84;103097.94;7401154;19;20022;-68
2022/01/12 10:13:28;;;;;;;85.85;32.15;;;;;;;0.63;95.90;103108.44;7398658;19;20007;-67
2022/01/12 10:15:57;;;;;;;76.15;28.30;;;;;;;0.64;96.14;103098.22;7399782;19;20019;-68
2022/01/12 10:18:25;;;;;;;75.60;26.80;;;;;;;0.67;95.38;103089.72;7400510;19;20041;-68
2022/01/12 10:20:54;;;;;;;68.40;28.40;;;;;;;0.71;96.11;103098.53;7400324;19;20025;-68
2022/01/12 10:23:26;;;;;;;73.55;29.23;;;;;;;0.75;95.89;103092.75;7400194;19;20010;-67
2022/01/12 10:25:54;;;;;;;73.78;28.70;;;;;;;0.80;95.79;103091.31;7399571;19;20061;-68
2022/01/12 10:28:26;;;;;;;75.93;28.10;;;;;;;0.85;95.83;103094.13;7399988;19;20014;-68
2022/01/12 10:30:57;;;;;;;68.43;27.10;;;;;;;0.90;95.83;103087.56;7400142;19;20022;-68
2022/01/12 10:33:27;;;;;;;69.97;26.83;;;;;;;0.96;95.95;103087.88;7398718;19;20367;-68
2022/01/12 10:35:58;;;;;;;67.88;26.27;;;;;;;1.02;94.88;103087.34;7398122;19;20019;-68
2022/01/12 10:38:28;;;;;;;69.35;26.92;;;;;;;1.06;95.22;103089.28;7399419;19;20088;-68
2022/01/12 10:40:57;;;;;;;70.03;27.52;;;;;;;1.10;95.51;103086.94;7399329;19;20019;-68
2022/01/12 10:43:34;;;;;;;69.25;27.40;;;;;;;1.10;95.35;103079.19;7399536;19;20030;-68
2022/01/12 10:46:05;;;;;;;68.40;26.52;;;;;;;1.20;95.31;103087.44;7399301;19;20049;-69
2022/01/12 10:48:47;;;;;;;66.05;25.65;;;;;;;1.24;94.12;103084.22;7399725;19;20022;-69
2022/01/12 10:51:17;;;;;;;69.50;27.52;;;;;;;1.30;94.96;103081.97;7399243;19;20033;-68
2022/01/12 10:53:46;;;;;;;79.07;29.63;;;;;;;1.32;95.66;103064.84;7399178;19;20026;-69
2022/01/12 10:56:16;;;;;;;66.47;26.10;;;;;;;1.41;94.98;103061.84;7398759;19;20018;-70
2022/01/12 10:58:50;;;;;;;64.22;26.15;;;;;;;1.49;95.33;103064.84;7399714;19;20014;-66
2022/01/12 11:01:20;;;;;;;62.58;25.92;;;;;;;1.55;95.29;103054.81;7399653;19;20015;-67
2022/01/12 11:03:50;;;;;;;61.30;23.95;;;;;;;1.61;94.38;103057.75;7399056;19;20019;-68
2022/01/12 11:06:18;;;;;;;65.35;25.92;;;;;;;1.65;94.15;103063.97;7397661;19;20022;-68
2022/01/12 11:08:49;;;;;;;70.30;27.27;;;;;;;1.69;94.70;103053.84;7398429;19;20432;-68
2022/01/12 11:11:19;;;;;;;59.40;24.40;;;;;;;1.72;93.50;103054.00;7398807;19;20018;-67
2022/01/12 11:13:51;;;;;;;60.95;24.27;;;;;;;1.76;94.04;103055.94;7396907;19;20007;-67
2022/01/12 11:16:22;;;;;;;59.67;24.52;;;;;;;1.80;94.41;103062.16;7397581;19;20018;-66
2022/01/12 11:18:52;;;;;;;62.83;24.90;;;;;;;1.86;94.65;103057.31;7399487;19;20035;-68
2022/01/12 11:21:25;;;;;;;53.40;22.48;;;;;;;1.90;93.59;103063.53;7398458;19;20019;-69
2022/01/12 11:23:58;;;;;;;59.10;23.88;;;;;;;1.97;94.08;103063.03;7397785;19;20382;-70
2022/01/12 11:26:28;;;;;;;57.67;24.45;;;;;;;2.01;93.71;103062.41;7396713;19;20371;-62
2022/01/12 11:29:00;;;;;;;63.70;23.08;;;;;;;2.08;94.72;103061.00;7397686;19;20037;-67
2022/01/12 11:31:30;;;;;;;56.63;22.77;;;;;;;2.13;93.66;103059.53;7397740;19;20015;-66
2022/01/12 11:33:59;;;;;;;57.20;22.02;;;;;;;2.17;93.74;103069.22;7396012;19;20361;-65
2022/01/12 11:36:29;;;;;;;54.30;22.73;;;;;;;2.20;93.75;103071.06;7396236;19;20353;-66
2022/01/12 11:39:07;;;;;;;58.63;23.77;;;;;;;2.22;94.21;103062.56;7397394;19;20011;-67
2022/01/12 11:41:37;;;;;;;52.53;23.52;;;;;;;2.23;94.36;103072.13;7397531;19;20014;-66
2022/01/12 11:44:12;;;;;;;56.25;23.92;;;;;;;2.24;93.58;103073.03;7398608;19;20015;-67
2022/01/12 11:46:46;;;;;;;51.75;21.27;;;;;;;2.25;94.46;103059.22;7396437;19;20022;-67
2022/01/12 11:49:25;;;;;;;46.92;19.75;;;;;;;2.24;93.66;103060.94;7396714;19;20509;-67
2022/01/12 11:51:54;;;;;;;49.78;20.65;;;;;;;2.25;94.59;103060.16;7398331;19;20017;-65
2022/01/12 11:54:23;;;;;;;46.58;18.67;;;;;;;2.27;93.39;103070.56;7397456;19;20021;-66
2022/01/12 11:56:57;;;;;;;33.80;15.10;;;;;;;2.24;91.85;103068.72;7395837;19;20014;-66
2022/01/12 11:59:29;;;;;;;28.60;14.20;;;;;;;2.23;92.98;103066.06;7397649;19;20014;-71
2022/01/12 12:02:09;;;;;;;32.50;14.48;;;;;;;2.23;91.88;103071.25;7396162;19;20011;-67
2022/01/12 12:04:38;;;;;;;33.53;15.55;;;;;;;2.24;92.61;103062.66;7396969;19;20107;-67
2022/01/12 12:07:09;;;;;;;28.67;14.38;;;;;;;2.27;93.68;103065.41;7395414;19;20023;-67
2022/01/12 12:09:43;;;;;;;29.95;14.73;;;;;;;2.28;94.48;103062.00;7397614;19;20015;-67
2022/01/12 12:12:16;;;;;;;27.90;14.25;;;;;;;2.29;93.36;103068.97;7396731;19;20021;-67
2022/01/12 12:14:49;;;;;;;28.43;14.50;;;;;;;2.30;92.95;103070.75;7393898;19;20017;-67
2022/01/12 12:17:18;;;;;;;31.40;14.68;;;;;;;2.29;92.90;103068.97;7393817;19;20390;-66
2022/01/12 12:19:47;;;;;;;32.63;15.88;;;;;;;2.28;91.76;103072.34;7395731;19;20044;-67
2022/01/12 12:22:18;;;;;;;30.95;16.10;;;;;;;2.27;91.63;103086.13;7394990;19;20018;-67
2022/01/12 12:24:49;;;;;;;28.58;15.73;;;;;;;2.24;92.18;103081.66;7395483;19;20018;-67